sensor_id;sensor_type;location;lat;lon;timestamp;temperature;humidity
22779;DHT22;11556;51.194;3.800;2023-03-21T00:01:56;11.90;99.90
22779;DHT22;11556;51.194;3.800;2023-03-21T00:04:23;11.80;99.90
22779;DHT22;11556;51.194;3.800;2023-03-21T00:06:50;11.80;99.90
22779;DHT22;11556;51.194;3.800;2023-03-21T00:09:16;11.90;99.90
22779;DHT22;11556;51.194;3.800;2023-03-21T00:11:42;11.90;99.90
22779;DHT22;11556;51.194;3.800;2023-03-21T00:14:08;11.90;99.90
22779;DHT22;11556;51.194;3.800;2023-03-21T00:16:34;11.80;99.90
22779;DHT22;11556;51.194;3.800;2023-03-21T00:19:01;11.80;99.90
22779;DHT22;11556;51.194;3.800;2023-03-21T00:21:31;12.00;99.90
22779;DHT22;11556;51.194;3.800;2023-03-21T00:23:58;11.90;99.90
22779;DHT22;11556;51.194;3.800;2023-03-21T00:26:25;12.00;99.90
22779;DHT22;11556;51.194;3.800;2023-03-21T00:28:50;12.00;99.90
22779;DHT22;11556;51.194;3.800;2023-03-21T00:31:17;12.10;99.90
22779;DHT22;11556;51.194;3.800;2023-03-21T00:33:43;12.10;99.90
22779;DHT22;11556;51.194;3.800;2023-03-21T00:36:09;12.10;99.90
22779;DHT22;11556;51.194;3.800;2023-03-21T00:38:36;12.00;99.90
22779;DHT22;11556;51.194;3.800;2023-03-21T00:41:07;11.90;99.90
22779;DHT22;11556;51.194;3.800;2023-03-21T00:43:33;11.90;99.90
22779;DHT22;11556;51.194;3.800;2023-03-21T00:45:59;12.00;99.90
22779;DHT22;11556;51.194;3.800;2023-03-21T00:48:26;12.00;99.90
22779;DHT22;11556;51.194;3.800;2023-03-21T00:50:52;12.20;99.90
22779;DHT22;11556;51.194;3.800;2023-03-21T00:53:19;12.20;99.90
22779;DHT22;11556;51.194;3.800;2023-03-21T00:55:45;12.10;99.90
22779;DHT22;11556;51.194;3.800;2023-03-21T00:58:10;12.20;99.90
22779;DHT22;11556;51.194;3.800;2023-03-21T01:00:36;12.20;99.90
22779;DHT22;11556;51.194;3.800;2023-03-21T01:03:04;12.10;99.90
22779;DHT22;11556;51.194;3.800;2023-03-21T01:05:34;12.10;99.90
22779;DHT22;11556;51.194;3.800;2023-03-21T01:08:19;12.20;99.90
22779;DHT22;11556;51.194;3.800;2023-03-21T01:10:47;12.30;99.90
22779;DHT22;11556;51.194;3.800;2023-03-21T01:13:15;12.20;99.90
22779;DHT22;11556;51.194;3.800;2023-03-21T01:15:53;12.20;99.90
22779;DHT22;11556;51.194;3.800;2023-03-21T01:18:22;12.10;99.90
22779;DHT22;11556;51.194;3.800;2023-03-21T01:20:50;12.10;99.90
22779;DHT22;11556;51.194;3.800;2023-03-21T01:23:15;12.10;99.90
22779;DHT22;11556;51.194;3.800;2023-03-21T01:25:42;12.20;99.90
22779;DHT22;11556;51.194;3.800;2023-03-21T01:28:08;12.20;99.90
22779;DHT22;11556;51.194;3.800;2023-03-21T01:30:34;12.30;99.90
22779;DHT22;11556;51.194;3.800;2023-03-21T01:33:00;12.10;99.90
22779;DHT22;11556;51.194;3.800;2023-03-21T01:35:25;12.20;99.90
22779;DHT22;11556;51.194;3.800;2023-03-21T01:37:51;12.10;99.90
22779;DHT22;11556;51.194;3.800;2023-03-21T01:40:25;12.20;99.90
22779;DHT22;11556;51.194;3.800;2023-03-21T01:42:51;12.10;99.90
22779;DHT22;11556;51.194;3.800;2023-03-21T01:48:39;12.00;99.90
22779;DHT22;11556;51.194;3.800;2023-03-21T01:51:07;12.00;99.90
22779;DHT22;11556;51.194;3.800;2023-03-21T01:53:35;12.10;99.90
22779;DHT22;11556;51.194;3.800;2023-03-21T01:56:06;12.00;99.90
22779;DHT22;11556;51.194;3.800;2023-03-21T01:58:35;12.10;99.90
22779;DHT22;11556;51.194;3.800;2023-03-21T02:01:02;12.10;99.90
22779;DHT22;11556;51.194;3.800;2023-03-21T02:03:29;12.10;99.90
22779;DHT22;11556;51.194;3.800;2023-03-21T02:06:22;12.10;99.90
22779;DHT22;11556;51.194;3.800;2023-03-21T02:08:50;12.20;99.90
22779;DHT22;11556;51.194;3.800;2023-03-21T02:11:17;12.00;99.90
22779;DHT22;11556;51.194;3.800;2023-03-21T02:13:43;12.20;99.90
22779;DHT22;11556;51.194;3.800;2023-03-21T02:16:20;12.20;99.90
22779;DHT22;11556;51.194;3.800;2023-03-21T02:27:37;12.00;99.90
22779;DHT22;11556;51.194;3.800;2023-03-21T02:30:16;12.00;99.90
22779;DHT22;11556;51.194;3.800;2023-03-21T02:42:08;11.90;99.90
22779;DHT22;11556;51.194;3.800;2023-03-21T02:44:53;11.80;99.90
22779;DHT22;11556;51.194;3.800;2023-03-21T02:47:36;11.80;99.90
22779;DHT22;11556;51.194;3.800;2023-03-21T02:50:11;11.90;99.90
22779;DHT22;11556;51.194;3.800;2023-03-21T02:52:41;11.90;99.90
22779;DHT22;11556;51.194;3.800;2023-03-21T02:55:18;11.90;99.90
22779;DHT22;11556;51.194;3.800;2023-03-21T02:57:46;12.00;99.90
22779;DHT22;11556;51.194;3.800;2023-03-21T03:00:17;11.90;99.90
22779;DHT22;11556;51.194;3.800;2023-03-21T03:02:44;11.80;99.90
22779;DHT22;11556;51.194;3.800;2023-03-21T03:05:18;11.90;99.90
22779;DHT22;11556;51.194;3.800;2023-03-21T03:18:52;12.10;99.90
22779;DHT22;11556;51.194;3.800;2023-03-21T03:21:46;12.10;99.90
22779;DHT22;11556;51.194;3.800;2023-03-21T03:24:19;12.10;99.90
22779;DHT22;11556;51.194;3.800;2023-03-21T03:26:47;12.10;99.90
22779;DHT22;11556;51.194;3.800;2023-03-21T03:29:17;11.90;99.90
22779;DHT22;11556;51.194;3.800;2023-03-21T03:31:55;12.10;99.90
22779;DHT22;11556;51.194;3.800;2023-03-21T03:34:25;12.10;99.90
22779;DHT22;11556;51.194;3.800;2023-03-21T03:36:56;12.00;99.90
22779;DHT22;11556;51.194;3.800;2023-03-21T03:39:29;12.10;99.90
22779;DHT22;11556;51.194;3.800;2023-03-21T03:42:04;12.00;99.90
22779;DHT22;11556;51.194;3.800;2023-03-21T03:44:30;12.10;99.90
22779;DHT22;11556;51.194;3.800;2023-03-21T03:47:09;12.10;99.90
22779;DHT22;11556;51.194;3.800;2023-03-21T03:49:40;11.90;99.90
22779;DHT22;11556;51.194;3.800;2023-03-21T03:52:25;11.80;99.90
22779;DHT22;11556;51.194;3.800;2023-03-21T03:54:53;11.80;99.90
22779;DHT22;11556;51.194;3.800;2023-03-21T03:57:19;11.90;99.90
22779;DHT22;11556;51.194;3.800;2023-03-21T03:59:46;11.90;99.90
22779;DHT22;11556;51.194;3.800;2023-03-21T04:02:12;12.00;99.90
22779;DHT22;11556;51.194;3.800;2023-03-21T04:04:38;12.00;99.90
22779;DHT22;11556;51.194;3.800;2023-03-21T04:07:04;12.00;99.90
22779;DHT22;11556;51.194;3.800;2023-03-21T04:09:31;12.10;99.90
22779;DHT22;11556;51.194;3.800;2023-03-21T04:11:57;12.10;99.90
22779;DHT22;11556;51.194;3.800;2023-03-21T04:14:23;12.10;99.90
22779;DHT22;11556;51.194;3.800;2023-03-21T04:16:49;12.10;99.90
22779;DHT22;11556;51.194;3.800;2023-03-21T04:19:17;12.10;99.90
22779;DHT22;11556;51.194;3.800;2023-03-21T04:21:43;12.20;99.90
22779;DHT22;11556;51.194;3.800;2023-03-21T04:24:08;11.90;99.90
22779;DHT22;11556;51.194;3.800;2023-03-21T04:26:36;11.90;99.90
22779;DHT22;11556;51.194;3.800;2023-03-21T04:29:02;12.00;99.90
22779;DHT22;11556;51.194;3.800;2023-03-21T04:31:29;12.00;99.90
22779;DHT22;11556;51.194;3.800;2023-03-21T04:34:04;12.10;99.90
22779;DHT22;11556;51.194;3.800;2023-03-21T04:36:35;12.20;99.90
22779;DHT22;11556;51.194;3.800;2023-03-21T04:39:07;12.00;99.90
22779;DHT22;11556;51.194;3.800;2023-03-21T04:41:41;12.20;99.90
22779;DHT22;11556;51.194;3.800;2023-03-21T04:44:08;12.00;99.90
22779;DHT22;11556;51.194;3.800;2023-03-21T04:46:34;12.00;99.90
22779;DHT22;11556;51.194;3.800;2023-03-21T04:49:00;11.90;99.90
22779;DHT22;11556;51.194;3.800;2023-03-21T04:51:26;12.00;99.90
22779;DHT22;11556;51.194;3.800;2023-03-21T04:53:51;12.00;99.90
22779;DHT22;11556;51.194;3.800;2023-03-21T04:56:25;12.00;99.90
22779;DHT22;11556;51.194;3.800;2023-03-21T04:58:59;12.00;99.90
22779;DHT22;11556;51.194;3.800;2023-03-21T05:01:26;11.90;99.90
22779;DHT22;11556;51.194;3.800;2023-03-21T05:03:58;11.60;99.90
22779;DHT22;11556;51.194;3.800;2023-03-21T05:06:24;11.50;99.90
22779;DHT22;11556;51.194;3.800;2023-03-21T05:08:50;11.50;99.90
22779;DHT22;11556;51.194;3.800;2023-03-21T05:11:16;11.50;99.90
22779;DHT22;11556;51.194;3.800;2023-03-21T05:13:42;11.40;99.90
22779;DHT22;11556;51.194;3.800;2023-03-21T05:16:07;11.30;99.90
22779;DHT22;11556;51.194;3.800;2023-03-21T05:18:33;11.30;99.90
22779;DHT22;11556;51.194;3.800;2023-03-21T05:21:03;11.30;99.90
22779;DHT22;11556;51.194;3.800;2023-03-21T05:23:32;11.10;99.90
22779;DHT22;11556;51.194;3.800;2023-03-21T05:26:06;11.00;99.90
22779;DHT22;11556;51.194;3.800;2023-03-21T05:28:32;10.90;99.90
22779;DHT22;11556;51.194;3.800;2023-03-21T05:31:02;10.90;99.90
22779;DHT22;11556;51.194;3.800;2023-03-21T05:33:28;11.00;99.90
22779;DHT22;11556;51.194;3.800;2023-03-21T05:35:53;10.90;99.90
22779;DHT22;11556;51.194;3.800;2023-03-21T05:38:20;10.80;99.90
22779;DHT22;11556;51.194;3.800;2023-03-21T05:40:46;10.90;99.90
22779;DHT22;11556;51.194;3.800;2023-03-21T05:43:12;10.90;99.90
22779;DHT22;11556;51.194;3.800;2023-03-21T05:45:38;10.90;99.90
22779;DHT22;11556;51.194;3.800;2023-03-21T05:48:03;10.90;99.90
22779;DHT22;11556;51.194;3.800;2023-03-21T05:50:29;10.90;99.90
22779;DHT22;11556;51.194;3.800;2023-03-21T05:52:55;10.90;99.90
22779;DHT22;11556;51.194;3.800;2023-03-21T05:55:20;11.00;99.90
22779;DHT22;11556;51.194;3.800;2023-03-21T05:57:46;10.90;99.90
22779;DHT22;11556;51.194;3.800;2023-03-21T06:00:12;10.90;99.90
22779;DHT22;11556;51.194;3.800;2023-03-21T06:02:38;10.90;99.90
22779;DHT22;11556;51.194;3.800;2023-03-21T06:05:04;10.90;99.90
22779;DHT22;11556;51.194;3.800;2023-03-21T06:07:31;10.90;99.90
22779;DHT22;11556;51.194;3.800;2023-03-21T06:09:56;10.90;99.90
22779;DHT22;11556;51.194;3.800;2023-03-21T06:12:22;11.00;99.90
22779;DHT22;11556;51.194;3.800;2023-03-21T06:14:48;11.10;99.90
22779;DHT22;11556;51.194;3.800;2023-03-21T06:17:13;11.00;99.90
22779;DHT22;11556;51.194;3.800;2023-03-21T06:19:40;11.00;99.90
22779;DHT22;11556;51.194;3.800;2023-03-21T06:22:05;11.10;99.90
22779;DHT22;11556;51.194;3.800;2023-03-21T06:24:31;11.30;99.90
22779;DHT22;11556;51.194;3.800;2023-03-21T06:26:57;11.10;99.90
22779;DHT22;11556;51.194;3.800;2023-03-21T06:29:23;11.20;99.90
22779;DHT22;11556;51.194;3.800;2023-03-21T06:31:49;11.30;99.90
22779;DHT22;11556;51.194;3.800;2023-03-21T06:34:15;11.40;99.90
22779;DHT22;11556;51.194;3.800;2023-03-21T06:36:40;11.40;99.90
22779;DHT22;11556;51.194;3.800;2023-03-21T06:39:09;11.30;99.90
22779;DHT22;11556;51.194;3.800;2023-03-21T06:41:35;11.20;99.90
22779;DHT22;11556;51.194;3.800;2023-03-21T06:44:00;11.20;99.90
22779;DHT22;11556;51.194;3.800;2023-03-21T06:46:26;11.30;99.90
22779;DHT22;11556;51.194;3.800;2023-03-21T06:48:52;11.40;99.90
22779;DHT22;11556;51.194;3.800;2023-03-21T06:51:17;11.50;99.90
22779;DHT22;11556;51.194;3.800;2023-03-21T06:53:43;11.50;99.90
22779;DHT22;11556;51.194;3.800;2023-03-21T06:56:10;11.40;99.90
22779;DHT22;11556;51.194;3.800;2023-03-21T06:58:36;11.50;99.90
22779;DHT22;11556;51.194;3.800;2023-03-21T07:01:03;11.60;99.90
22779;DHT22;11556;51.194;3.800;2023-03-21T07:03:29;11.50;99.90
22779;DHT22;11556;51.194;3.800;2023-03-21T07:05:56;11.50;99.90
22779;DHT22;11556;51.194;3.800;2023-03-21T07:08:22;11.50;99.90
22779;DHT22;11556;51.194;3.800;2023-03-21T07:10:47;11.50;99.90
22779;DHT22;11556;51.194;3.800;2023-03-21T07:13:14;11.70;99.90
22779;DHT22;11556;51.194;3.800;2023-03-21T07:15:40;11.90;99.90
22779;DHT22;11556;51.194;3.800;2023-03-21T07:18:07;12.00;99.90
22779;DHT22;11556;51.194;3.800;2023-03-21T07:20:34;12.00;99.90
22779;DHT22;11556;51.194;3.800;2023-03-21T07:23:00;12.10;99.90
22779;DHT22;11556;51.194;3.800;2023-03-21T07:25:26;12.10;99.90
22779;DHT22;11556;51.194;3.800;2023-03-21T07:27:51;12.20;99.90
22779;DHT22;11556;51.194;3.800;2023-03-21T07:30:17;12.10;99.90
22779;DHT22;11556;51.194;3.800;2023-03-21T07:32:43;12.10;99.90
22779;DHT22;11556;51.194;3.800;2023-03-21T07:35:11;12.20;99.90
22779;DHT22;11556;51.194;3.800;2023-03-21T07:37:38;12.20;99.90
22779;DHT22;11556;51.194;3.800;2023-03-21T07:40:04;12.40;99.90
22779;DHT22;11556;51.194;3.800;2023-03-21T07:42:40;12.30;99.90
22779;DHT22;11556;51.194;3.800;2023-03-21T07:45:07;12.40;99.90
22779;DHT22;11556;51.194;3.800;2023-03-21T07:47:33;12.60;99.90
22779;DHT22;11556;51.194;3.800;2023-03-21T07:49:59;12.60;99.90
22779;DHT22;11556;51.194;3.800;2023-03-21T07:52:25;12.90;99.90
22779;DHT22;11556;51.194;3.800;2023-03-21T07:54:51;12.90;99.90
22779;DHT22;11556;51.194;3.800;2023-03-21T07:57:17;13.00;99.90
22779;DHT22;11556;51.194;3.800;2023-03-21T07:59:42;13.20;99.90
22779;DHT22;11556;51.194;3.800;2023-03-21T08:02:16;13.20;99.90
22779;DHT22;11556;51.194;3.800;2023-03-21T08:04:42;13.10;99.90
22779;DHT22;11556;51.194;3.800;2023-03-21T08:07:08;13.00;99.90
22779;DHT22;11556;51.194;3.800;2023-03-21T08:09:34;13.30;99.90
22779;DHT22;11556;51.194;3.800;2023-03-21T08:12:01;13.40;99.90
22779;DHT22;11556;51.194;3.800;2023-03-21T08:14:27;13.50;99.90
22779;DHT22;11556;51.194;3.800;2023-03-21T08:16:53;13.50;99.90
22779;DHT22;11556;51.194;3.800;2023-03-21T08:19:18;13.70;99.90
22779;DHT22;11556;51.194;3.800;2023-03-21T08:21:46;13.50;99.90
22779;DHT22;11556;51.194;3.800;2023-03-21T08:24:12;13.60;99.90
22779;DHT22;11556;51.194;3.800;2023-03-21T08:26:38;13.70;99.90
22779;DHT22;11556;51.194;3.800;2023-03-21T08:29:03;13.80;99.90
22779;DHT22;11556;51.194;3.800;2023-03-21T08:31:29;13.70;99.90
22779;DHT22;11556;51.194;3.800;2023-03-21T08:33:55;14.00;99.90
22779;DHT22;11556;51.194;3.800;2023-03-21T08:36:21;14.20;99.90
22779;DHT22;11556;51.194;3.800;2023-03-21T08:38:47;14.40;99.90
22779;DHT22;11556;51.194;3.800;2023-03-21T08:41:14;14.70;99.90
22779;DHT22;11556;51.194;3.800;2023-03-21T08:43:39;14.90;99.90
22779;DHT22;11556;51.194;3.800;2023-03-21T08:46:05;15.10;99.90
22779;DHT22;11556;51.194;3.800;2023-03-21T08:48:31;15.20;99.90
22779;DHT22;11556;51.194;3.800;2023-03-21T08:50:59;15.20;99.90
22779;DHT22;11556;51.194;3.800;2023-03-21T08:53:25;15.40;99.90
22779;DHT22;11556;51.194;3.800;2023-03-21T08:55:51;15.40;99.90
22779;DHT22;11556;51.194;3.800;2023-03-21T08:58:16;15.40;99.90
22779;DHT22;11556;51.194;3.800;2023-03-21T09:00:42;15.20;99.90
22779;DHT22;11556;51.194;3.800;2023-03-21T09:03:07;14.70;99.90
22779;DHT22;11556;51.194;3.800;2023-03-21T09:05:33;14.80;99.90
22779;DHT22;11556;51.194;3.800;2023-03-21T09:08:01;14.40;99.90
22779;DHT22;11556;51.194;3.800;2023-03-21T09:10:27;14.40;99.90
22779;DHT22;11556;51.194;3.800;2023-03-21T09:12:54;14.50;99.90
22779;DHT22;11556;51.194;3.800;2023-03-21T09:15:23;14.30;99.90
22779;DHT22;11556;51.194;3.800;2023-03-21T09:17:49;14.20;99.90
22779;DHT22;11556;51.194;3.800;2023-03-21T09:20:17;14.30;99.90
22779;DHT22;11556;51.194;3.800;2023-03-21T09:22:49;14.40;99.90
22779;DHT22;11556;51.194;3.800;2023-03-21T09:25:16;14.40;99.90
22779;DHT22;11556;51.194;3.800;2023-03-21T09:27:43;14.40;99.90
22779;DHT22;11556;51.194;3.800;2023-03-21T09:30:11;14.40;99.90
22779;DHT22;11556;51.194;3.800;2023-03-21T09:32:38;14.50;99.90
22779;DHT22;11556;51.194;3.800;2023-03-21T09:35:04;14.60;99.90
22779;DHT22;11556;51.194;3.800;2023-03-21T09:37:30;14.70;99.90
22779;DHT22;11556;51.194;3.800;2023-03-21T09:39:57;14.70;99.90
22779;DHT22;11556;51.194;3.800;2023-03-21T09:42:36;14.70;99.90
22779;DHT22;11556;51.194;3.800;2023-03-21T09:45:28;14.60;99.90
22779;DHT22;11556;51.194;3.800;2023-03-21T09:47:56;14.60;99.90
22779;DHT22;11556;51.194;3.800;2023-03-21T09:50:30;14.70;99.90
22779;DHT22;11556;51.194;3.800;2023-03-21T09:52:57;14.70;99.90
22779;DHT22;11556;51.194;3.800;2023-03-21T09:55:30;14.90;99.90
22779;DHT22;11556;51.194;3.800;2023-03-21T10:00:49;15.10;99.90
22779;DHT22;11556;51.194;3.800;2023-03-21T10:03:28;15.20;99.90
22779;DHT22;11556;51.194;3.800;2023-03-21T10:05:55;15.30;99.90
22779;DHT22;11556;51.194;3.800;2023-03-21T10:08:37;15.60;99.90
22779;DHT22;11556;51.194;3.800;2023-03-21T10:11:08;15.60;99.90
22779;DHT22;11556;51.194;3.800;2023-03-21T10:13:41;15.70;99.90
22779;DHT22;11556;51.194;3.800;2023-03-21T10:16:15;15.90;99.90
22779;DHT22;11556;51.194;3.800;2023-03-21T10:18:43;15.90;99.90
22779;DHT22;11556;51.194;3.800;2023-03-21T10:21:18;15.80;99.90
22779;DHT22;11556;51.194;3.800;2023-03-21T10:23:44;15.60;99.90
22779;DHT22;11556;51.194;3.800;2023-03-21T10:26:10;15.30;99.90
22779;DHT22;11556;51.194;3.800;2023-03-21T10:28:38;15.00;99.90
22779;DHT22;11556;51.194;3.800;2023-03-21T10:31:07;15.00;99.90
22779;DHT22;11556;51.194;3.800;2023-03-21T10:33:39;14.90;99.90
22779;DHT22;11556;51.194;3.800;2023-03-21T10:36:13;14.80;99.90
22779;DHT22;11556;51.194;3.800;2023-03-21T10:38:49;14.70;99.90
22779;DHT22;11556;51.194;3.800;2023-03-21T10:41:17;14.60;99.90
22779;DHT22;11556;51.194;3.800;2023-03-21T10:43:45;14.60;99.90
22779;DHT22;11556;51.194;3.800;2023-03-21T10:46:16;14.70;99.90
22779;DHT22;11556;51.194;3.800;2023-03-21T10:48:50;15.10;99.90
22779;DHT22;11556;51.194;3.800;2023-03-21T10:51:22;15.50;99.90
22779;DHT22;11556;51.194;3.800;2023-03-21T10:53:54;15.90;99.90
22779;DHT22;11556;51.194;3.800;2023-03-21T10:56:27;16.80;99.90
22779;DHT22;11556;51.194;3.800;2023-03-21T10:58:58;17.60;99.90
22779;DHT22;11556;51.194;3.800;2023-03-21T11:01:36;17.80;99.90
22779;DHT22;11556;51.194;3.800;2023-03-21T11:04:09;17.80;99.90
22779;DHT22;11556;51.194;3.800;2023-03-21T11:06:40;17.70;99.90
22779;DHT22;11556;51.194;3.800;2023-03-21T11:14:38;17.50;99.90
22779;DHT22;11556;51.194;3.800;2023-03-21T11:17:28;17.50;99.90
22779;DHT22;11556;51.194;3.800;2023-03-21T11:19:59;17.30;99.90
22779;DHT22;11556;51.194;3.800;2023-03-21T11:22:28;17.20;99.90
22779;DHT22;11556;51.194;3.800;2023-03-21T11:24:59;17.20;99.90
22779;DHT22;11556;51.194;3.800;2023-03-21T11:27:27;17.00;99.90
22779;DHT22;11556;51.194;3.800;2023-03-21T11:29:55;17.10;99.90
22779;DHT22;11556;51.194;3.800;2023-03-21T11:32:33;17.30;99.90
22779;DHT22;11556;51.194;3.800;2023-03-21T11:35:01;17.50;99.90
22779;DHT22;11556;51.194;3.800;2023-03-21T11:42:47;17.00;99.90
22779;DHT22;11556;51.194;3.800;2023-03-21T11:45:23;16.80;99.90
22779;DHT22;11556;51.194;3.800;2023-03-21T11:47:51;16.60;99.90
22779;DHT22;11556;51.194;3.800;2023-03-21T11:55:23;16.90;99.90
22779;DHT22;11556;51.194;3.800;2023-03-21T12:00:53;17.30;99.90
22779;DHT22;11556;51.194;3.800;2023-03-21T12:06:02;17.00;99.90
22779;DHT22;11556;51.194;3.800;2023-03-21T12:11:31;17.10;99.90
22779;DHT22;11556;51.194;3.800;2023-03-21T12:16:52;17.00;99.90
22779;DHT22;11556;51.194;3.800;2023-03-21T12:22:09;17.00;99.90
22779;DHT22;11556;51.194;3.800;2023-03-21T12:24:40;16.90;99.90
22779;DHT22;11556;51.194;3.800;2023-03-21T12:38:31;16.30;99.90
22779;DHT22;11556;51.194;3.800;2023-03-21T12:41:10;16.10;99.90
22779;DHT22;11556;51.194;3.800;2023-03-21T12:43:59;15.90;99.90
22779;DHT22;11556;51.194;3.800;2023-03-21T12:52:19;15.90;99.90
22779;DHT22;11556;51.194;3.800;2023-03-21T12:57:20;15.70;99.90
22779;DHT22;11556;51.194;3.800;2023-03-21T13:00:11;15.70;99.90
22779;DHT22;11556;51.194;3.800;2023-03-21T13:02:58;15.60;99.90
22779;DHT22;11556;51.194;3.800;2023-03-21T13:05:33;15.70;99.90
22779;DHT22;11556;51.194;3.800;2023-03-21T13:10:37;15.80;99.90
22779;DHT22;11556;51.194;3.800;2023-03-21T13:13:30;15.80;99.90
22779;DHT22;11556;51.194;3.800;2023-03-21T13:21:00;15.40;99.90
22779;DHT22;11556;51.194;3.800;2023-03-21T13:23:35;15.40;99.90
22779;DHT22;11556;51.194;3.800;2023-03-21T13:26:02;15.40;99.90
22779;DHT22;11556;51.194;3.800;2023-03-21T13:28:30;15.30;99.90
22779;DHT22;11556;51.194;3.800;2023-03-21T13:31:22;15.20;99.90
22779;DHT22;11556;51.194;3.800;2023-03-21T13:33:50;15.10;99.90
22779;DHT22;11556;51.194;3.800;2023-03-21T13:36:29;15.10;99.90
22779;DHT22;11556;51.194;3.800;2023-03-21T13:39:02;15.00;99.90
22779;DHT22;11556;51.194;3.800;2023-03-21T13:41:37;15.00;99.90
22779;DHT22;11556;51.194;3.800;2023-03-21T13:48:58;14.80;99.90
22779;DHT22;11556;51.194;3.800;2023-03-21T13:54:18;14.70;99.90
22779;DHT22;11556;51.194;3.800;2023-03-21T14:02:27;14.80;99.90
22779;DHT22;11556;51.194;3.800;2023-03-21T14:05:16;14.70;99.90
22779;DHT22;11556;51.194;3.800;2023-03-21T14:07:45;14.80;99.90
22779;DHT22;11556;51.194;3.800;2023-03-21T14:10:37;14.60;99.90
22779;DHT22;11556;51.194;3.800;2023-03-21T14:13:05;14.50;99.90
22779;DHT22;11556;51.194;3.800;2023-03-21T14:15:38;14.50;99.90
22779;DHT22;11556;51.194;3.800;2023-03-21T14:18:04;14.60;99.90
22779;DHT22;11556;51.194;3.800;2023-03-21T14:20:40;14.80;99.90
22779;DHT22;11556;51.194;3.800;2023-03-21T14:23:13;14.80;99.90
22779;DHT22;11556;51.194;3.800;2023-03-21T14:25:39;14.80;99.90
22779;DHT22;11556;51.194;3.800;2023-03-21T14:28:24;14.70;99.90
22779;DHT22;11556;51.194;3.800;2023-03-21T14:30:55;14.70;99.90
22779;DHT22;11556;51.194;3.800;2023-03-21T14:35:54;14.50;99.90
22779;DHT22;11556;51.194;3.800;2023-03-21T14:38:33;14.50;99.90
22779;DHT22;11556;51.194;3.800;2023-03-21T14:41:00;14.20;99.90
22779;DHT22;11556;51.194;3.800;2023-03-21T14:43:26;14.00;99.90
22779;DHT22;11556;51.194;3.800;2023-03-21T14:45:54;13.90;99.90
22779;DHT22;11556;51.194;3.800;2023-03-21T14:48:28;14.10;99.90
22779;DHT22;11556;51.194;3.800;2023-03-21T14:50:55;14.10;99.90
22779;DHT22;11556;51.194;3.800;2023-03-21T14:56:18;14.60;99.90
22779;DHT22;11556;51.194;3.800;2023-03-21T14:58:46;14.90;99.90
22779;DHT22;11556;51.194;3.800;2023-03-21T15:01:27;15.10;99.90
22779;DHT22;11556;51.194;3.800;2023-03-21T15:03:54;15.20;99.90
22779;DHT22;11556;51.194;3.800;2023-03-21T15:06:19;15.20;99.90
22779;DHT22;11556;51.194;3.800;2023-03-21T15:08:59;15.10;99.90
22779;DHT22;11556;51.194;3.800;2023-03-21T15:11:34;15.20;99.90
22779;DHT22;11556;51.194;3.800;2023-03-21T15:14:04;15.30;99.90
22779;DHT22;11556;51.194;3.800;2023-03-21T15:16:31;15.20;99.90
22779;DHT22;11556;51.194;3.800;2023-03-21T15:18:57;15.30;99.90
22779;DHT22;11556;51.194;3.800;2023-03-21T15:21:30;15.40;99.90
22779;DHT22;11556;51.194;3.800;2023-03-21T15:24:05;15.20;99.90
22779;DHT22;11556;51.194;3.800;2023-03-21T15:26:38;15.30;99.90
22779;DHT22;11556;51.194;3.800;2023-03-21T15:29:05;15.30;99.90
22779;DHT22;11556;51.194;3.800;2023-03-21T15:31:36;15.10;99.90
22779;DHT22;11556;51.194;3.800;2023-03-21T15:34:03;15.40;99.90
22779;DHT22;11556;51.194;3.800;2023-03-21T15:36:46;15.70;99.90
22779;DHT22;11556;51.194;3.800;2023-03-21T15:39:14;16.40;99.90
22779;DHT22;11556;51.194;3.800;2023-03-21T15:41:40;16.90;99.90
22779;DHT22;11556;51.194;3.800;2023-03-21T15:49:27;16.60;99.90
22779;DHT22;11556;51.194;3.800;2023-03-21T15:54:30;16.20;99.90
22779;DHT22;11556;51.194;3.800;2023-03-21T15:57:00;16.30;99.90
22779;DHT22;11556;51.194;3.800;2023-03-21T15:59:35;16.20;99.90
22779;DHT22;11556;51.194;3.800;2023-03-21T16:02:01;15.90;99.90
22779;DHT22;11556;51.194;3.800;2023-03-21T16:04:27;15.60;99.90
22779;DHT22;11556;51.194;3.800;2023-03-21T16:07:03;15.30;99.90
22779;DHT22;11556;51.194;3.800;2023-03-21T16:09:42;15.30;99.90
22779;DHT22;11556;51.194;3.800;2023-03-21T16:12:13;15.10;99.90
22779;DHT22;11556;51.194;3.800;2023-03-21T16:14:39;15.20;99.90
22779;DHT22;11556;51.194;3.800;2023-03-21T16:19:54;15.30;99.90
22779;DHT22;11556;51.194;3.800;2023-03-21T16:22:20;15.40;99.90
22779;DHT22;11556;51.194;3.800;2023-03-21T16:24:47;15.60;99.90
22779;DHT22;11556;51.194;3.800;2023-03-21T16:27:13;15.60;99.90
22779;DHT22;11556;51.194;3.800;2023-03-21T16:29:39;15.50;99.90
22779;DHT22;11556;51.194;3.800;2023-03-21T16:32:14;15.70;99.90
22779;DHT22;11556;51.194;3.800;2023-03-21T16:34:40;15.60;99.90
22779;DHT22;11556;51.194;3.800;2023-03-21T16:37:09;15.40;99.90
22779;DHT22;11556;51.194;3.800;2023-03-21T16:39:36;15.30;99.90
22779;DHT22;11556;51.194;3.800;2023-03-21T16:42:02;15.30;99.90
22779;DHT22;11556;51.194;3.800;2023-03-21T16:44:28;15.30;99.90
22779;DHT22;11556;51.194;3.800;2023-03-21T16:46:53;15.20;99.90
22779;DHT22;11556;51.194;3.800;2023-03-21T16:49:22;15.20;99.90
22779;DHT22;11556;51.194;3.800;2023-03-21T16:51:49;15.00;99.90
22779;DHT22;11556;51.194;3.800;2023-03-21T16:54:15;14.90;99.90
22779;DHT22;11556;51.194;3.800;2023-03-21T16:56:52;15.00;99.90
22779;DHT22;11556;51.194;3.800;2023-03-21T16:59:18;14.90;99.90
22779;DHT22;11556;51.194;3.800;2023-03-21T17:01:44;14.70;99.90
22779;DHT22;11556;51.194;3.800;2023-03-21T17:04:12;14.80;99.90
22779;DHT22;11556;51.194;3.800;2023-03-21T17:06:49;14.70;99.90
22779;DHT22;11556;51.194;3.800;2023-03-21T17:09:18;14.70;99.90
22779;DHT22;11556;51.194;3.800;2023-03-21T17:11:44;14.70;99.90
22779;DHT22;11556;51.194;3.800;2023-03-21T17:14:11;14.60;99.90
22779;DHT22;11556;51.194;3.800;2023-03-21T17:16:38;14.60;99.90
22779;DHT22;11556;51.194;3.800;2023-03-21T17:19:16;14.60;99.90
22779;DHT22;11556;51.194;3.800;2023-03-21T17:21:42;14.60;99.90
22779;DHT22;11556;51.194;3.800;2023-03-21T17:24:08;14.60;99.90
22779;DHT22;11556;51.194;3.800;2023-03-21T17:26:34;14.60;99.90
22779;DHT22;11556;51.194;3.800;2023-03-21T17:28:59;14.80;99.90
22779;DHT22;11556;51.194;3.800;2023-03-21T17:31:27;14.80;99.90
22779;DHT22;11556;51.194;3.800;2023-03-21T17:33:52;14.80;99.90
22779;DHT22;11556;51.194;3.800;2023-03-21T17:36:47;14.80;99.90
22779;DHT22;11556;51.194;3.800;2023-03-21T17:39:24;14.80;99.90
22779;DHT22;11556;51.194;3.800;2023-03-21T17:41:50;14.70;99.90
22779;DHT22;11556;51.194;3.800;2023-03-21T17:44:17;14.60;99.90
22779;DHT22;11556;51.194;3.800;2023-03-21T17:46:42;14.60;99.90